sim
Sign-in with your pilot id or email,
or register
Callsign
Passwort

Schedule Details

Flight Number: OEO6763
Departure: London Heathrow Airport (EGLL) at 19:25
Arrival: Mumbai Chhatrapati Shivaji International Airport (VABB) at 04:25

Weather Information
Getting current METAR information for EGLL 191850Z AUTO 27014KT 9999 NCD 18/07 Q1017 NOSIG
Getting current METAR information for VABB 191830Z 27004KT 3500 HZ FEW020 SCT025 28/25 Q1010 NOSIG

Schedule Frequency

Route Map